sensor_id;sensor_type;location;lat;lon;timestamp;P1;durP1;ratioP1;P2;durP2;ratioP2
71973;SDS011;59840;52.122;5.404;2023-02-28T00:00:20;6.05;;;1.67;;
71973;SDS011;59840;52.122;5.404;2023-02-28T00:02:47;2.43;;;1.33;;
71973;SDS011;59840;52.122;5.404;2023-02-28T00:05:16;4.93;;;1.63;;
71973;SDS011;59840;52.122;5.404;2023-02-28T00:07:45;3.40;;;1.17;;
71973;SDS011;59840;52.122;5.404;2023-02-28T00:10:16;1.75;;;1.10;;
71973;SDS011;59840;52.122;5.404;2023-02-28T00:12:49;3.60;;;1.20;;
71973;SDS011;59840;52.122;5.404;2023-02-28T00:15:17;3.83;;;1.40;;
71973;SDS011;59840;52.122;5.404;2023-02-28T00:17:44;2.05;;;1.40;;
71973;SDS011;59840;52.122;5.404;2023-02-28T00:20:11;1.85;;;1.40;;
71973;SDS011;59840;52.122;5.404;2023-02-28T00:22:39;3.63;;;1.30;;
71973;SDS011;59840;52.122;5.404;2023-02-28T00:25:11;2.85;;;1.25;;
71973;SDS011;59840;52.122;5.404;2023-02-28T00:27:39;3.77;;;1.47;;
71973;SDS011;59840;52.122;5.404;2023-02-28T00:30:06;4.43;;;1.60;;
71973;SDS011;59840;52.122;5.404;2023-02-28T00:32:35;4.03;;;1.23;;
71973;SDS011;59840;52.122;5.404;2023-02-28T00:35:02;1.58;;;0.73;;
71973;SDS011;59840;52.122;5.404;2023-02-28T00:37:28;5.85;;;1.27;;
71973;SDS011;59840;52.122;5.404;2023-02-28T00:39:55;1.90;;;0.90;;
71973;SDS011;59840;52.122;5.404;2023-02-28T00:42:22;2.30;;;1.30;;
71973;SDS011;59840;52.122;5.404;2023-02-28T00:44:49;3.03;;;1.27;;
71973;SDS011;59840;52.122;5.404;2023-02-28T00:47:16;1.95;;;1.23;;
71973;SDS011;59840;52.122;5.404;2023-02-28T00:49:43;2.35;;;0.98;;
71973;SDS011;59840;52.122;5.404;2023-02-28T00:52:10;1.87;;;1.13;;
71973;SDS011;59840;52.122;5.404;2023-02-28T00:54:36;4.28;;;1.40;;
71973;SDS011;59840;52.122;5.404;2023-02-28T00:57:03;3.25;;;1.00;;
71973;SDS011;59840;52.122;5.404;2023-02-28T00:59:29;3.97;;;1.33;;
71973;SDS011;59840;52.122;5.404;2023-02-28T01:01:56;5.05;;;1.58;;
71973;SDS011;59840;52.122;5.404;2023-02-28T01:04:22;4.03;;;1.50;;
71973;SDS011;59840;52.122;5.404;2023-02-28T01:06:49;3.15;;;1.15;;
71973;SDS011;59840;52.122;5.404;2023-02-28T01:09:15;3.50;;;1.25;;
71973;SDS011;59840;52.122;5.404;2023-02-28T01:11:42;1.65;;;0.85;;
71973;SDS011;59840;52.122;5.404;2023-02-28T01:14:13;3.65;;;1.30;;
71973;SDS011;59840;52.122;5.404;2023-02-28T01:16:42;3.67;;;1.13;;
71973;SDS011;59840;52.122;5.404;2023-02-28T01:19:09;2.95;;;1.27;;
71973;SDS011;59840;52.122;5.404;2023-02-28T01:21:35;3.75;;;0.98;;
71973;SDS011;59840;52.122;5.404;2023-02-28T01:24:05;2.78;;;1.17;;
71973;SDS011;59840;52.122;5.404;2023-02-28T01:26:35;3.08;;;1.10;;
71973;SDS011;59840;52.122;5.404;2023-02-28T01:29:01;3.43;;;1.30;;
71973;SDS011;59840;52.122;5.404;2023-02-28T01:31:28;3.75;;;1.10;;
71973;SDS011;59840;52.122;5.404;2023-02-28T01:33:55;2.55;;;1.30;;
71973;SDS011;59840;52.122;5.404;2023-02-28T01:36:22;1.33;;;0.80;;
71973;SDS011;59840;52.122;5.404;2023-02-28T01:38:50;2.33;;;1.20;;
71973;SDS011;59840;52.122;5.404;2023-02-28T01:41:22;3.47;;;1.50;;
71973;SDS011;59840;52.122;5.404;2023-02-28T01:46:24;3.38;;;1.08;;
71973;SDS011;59840;52.122;5.404;2023-02-28T01:49:00;4.10;;;1.20;;
71973;SDS011;59840;52.122;5.404;2023-02-28T01:54:07;2.30;;;1.10;;
71973;SDS011;59840;52.122;5.404;2023-02-28T01:56:41;1.52;;;1.00;;
71973;SDS011;59840;52.122;5.404;2023-02-28T01:59:13;3.60;;;1.30;;
71973;SDS011;59840;52.122;5.404;2023-02-28T02:01:47;2.55;;;1.45;;
71973;SDS011;59840;52.122;5.404;2023-02-28T02:04:13;3.80;;;1.20;;
71973;SDS011;59840;52.122;5.404;2023-02-28T02:06:41;3.40;;;1.20;;
71973;SDS011;59840;52.122;5.404;2023-02-28T02:09:10;3.85;;;1.25;;
71973;SDS011;59840;52.122;5.404;2023-02-28T02:11:39;3.80;;;1.00;;
71973;SDS011;59840;52.122;5.404;2023-02-28T02:14:15;3.35;;;1.20;;
71973;SDS011;59840;52.122;5.404;2023-02-28T02:17:00;4.60;;;1.30;;
71973;SDS011;59840;52.122;5.404;2023-02-28T02:25:35;1.48;;;0.98;;
71973;SDS011;59840;52.122;5.404;2023-02-28T02:31:05;1.98;;;0.88;;
71973;SDS011;59840;52.122;5.404;2023-02-28T02:36:33;2.25;;;1.13;;
71973;SDS011;59840;52.122;5.404;2023-02-28T02:39:15;4.60;;;1.33;;
71973;SDS011;59840;52.122;5.404;2023-02-28T02:42:03;2.17;;;1.00;;
71973;SDS011;59840;52.122;5.404;2023-02-28T02:44:42;2.10;;;1.25;;
71973;SDS011;59840;52.122;5.404;2023-02-28T02:47:15;2.13;;;1.10;;
71973;SDS011;59840;52.122;5.404;2023-02-28T02:49:50;3.28;;;1.40;;
71973;SDS011;59840;52.122;5.404;2023-02-28T02:52:21;2.92;;;1.05;;
71973;SDS011;59840;52.122;5.404;2023-02-28T02:54:51;2.47;;;1.08;;
71973;SDS011;59840;52.122;5.404;2023-02-28T02:57:23;2.25;;;1.13;;
71973;SDS011;59840;52.122;5.404;2023-02-28T02:59:56;5.27;;;1.30;;
71973;SDS011;59840;52.122;5.404;2023-02-28T03:02:23;4.30;;;1.30;;
71973;SDS011;59840;52.122;5.404;2023-02-28T03:04:52;2.22;;;1.20;;
71973;SDS011;59840;52.122;5.404;2023-02-28T03:07:28;1.50;;;1.05;;
71973;SDS011;59840;52.122;5.404;2023-02-28T03:09:55;5.05;;;1.40;;
71973;SDS011;59840;52.122;5.404;2023-02-28T03:12:26;3.70;;;1.33;;
71973;SDS011;59840;52.122;5.404;2023-02-28T03:15:19;2.60;;;1.00;;
71973;SDS011;59840;52.122;5.404;2023-02-28T03:17:56;3.17;;;1.02;;
71973;SDS011;59840;52.122;5.404;2023-02-28T03:20:48;3.53;;;1.45;;
71973;SDS011;59840;52.122;5.404;2023-02-28T03:26:20;4.30;;;1.20;;
71973;SDS011;59840;52.122;5.404;2023-02-28T03:28:55;7.07;;;1.33;;
71973;SDS011;59840;52.122;5.404;2023-02-28T03:31:32;7.15;;;1.73;;
71973;SDS011;59840;52.122;5.404;2023-02-28T03:36:37;3.05;;;1.42;;
71973;SDS011;59840;52.122;5.404;2023-02-28T03:39:19;4.13;;;1.60;;
71973;SDS011;59840;52.122;5.404;2023-02-28T03:42:00;2.50;;;1.42;;
71973;SDS011;59840;52.122;5.404;2023-02-28T03:44:36;2.15;;;1.20;;
71973;SDS011;59840;52.122;5.404;2023-02-28T03:47:11;4.38;;;1.50;;
71973;SDS011;59840;52.122;5.404;2023-02-28T03:49:54;3.17;;;1.63;;
71973;SDS011;59840;52.122;5.404;2023-02-28T03:52:27;2.20;;;1.70;;
71973;SDS011;59840;52.122;5.404;2023-02-28T03:54:59;4.20;;;1.08;;
71973;SDS011;59840;52.122;5.404;2023-02-28T04:00:25;2.25;;;1.30;;
71973;SDS011;59840;52.122;5.404;2023-02-28T04:02:56;4.20;;;1.50;;
71973;SDS011;59840;52.122;5.404;2023-02-28T04:05:23;1.83;;;1.30;;
71973;SDS011;59840;52.122;5.404;2023-02-28T04:07:50;3.53;;;1.00;;
71973;SDS011;59840;52.122;5.404;2023-02-28T04:10:17;3.60;;;1.40;;
71973;SDS011;59840;52.122;5.404;2023-02-28T04:12:44;4.40;;;1.50;;
71973;SDS011;59840;52.122;5.404;2023-02-28T04:15:10;3.28;;;1.60;;
71973;SDS011;59840;52.122;5.404;2023-02-28T04:17:37;3.23;;;1.43;;
71973;SDS011;59840;52.122;5.404;2023-02-28T04:20:04;1.40;;;0.88;;
71973;SDS011;59840;52.122;5.404;2023-02-28T04:22:35;1.80;;;0.75;;
71973;SDS011;59840;52.122;5.404;2023-02-28T04:25:03;1.92;;;0.82;;
71973;SDS011;59840;52.122;5.404;2023-02-28T04:27:31;2.70;;;1.10;;
71973;SDS011;59840;52.122;5.404;2023-02-28T04:29:58;1.17;;;0.60;;
71973;SDS011;59840;52.122;5.404;2023-02-28T04:32:24;1.38;;;0.63;;
71973;SDS011;59840;52.122;5.404;2023-02-28T04:34:51;1.92;;;1.00;;
71973;SDS011;59840;52.122;5.404;2023-02-28T04:37:18;1.40;;;0.80;;
71973;SDS011;59840;52.122;5.404;2023-02-28T04:39:44;1.83;;;0.90;;
71973;SDS011;59840;52.122;5.404;2023-02-28T04:42:11;2.33;;;1.20;;
71973;SDS011;59840;52.122;5.404;2023-02-28T04:44:38;3.30;;;0.90;;
71973;SDS011;59840;52.122;5.404;2023-02-28T04:47:04;2.58;;;1.08;;
71973;SDS011;59840;52.122;5.404;2023-02-28T04:49:31;3.05;;;1.50;;
71973;SDS011;59840;52.122;5.404;2023-02-28T04:51:58;1.98;;;0.93;;
71973;SDS011;59840;52.122;5.404;2023-02-28T04:54:25;2.10;;;0.90;;
71973;SDS011;59840;52.122;5.404;2023-02-28T04:56:51;3.33;;;1.00;;
71973;SDS011;59840;52.122;5.404;2023-02-28T04:59:18;3.00;;;1.08;;
71973;SDS011;59840;52.122;5.404;2023-02-28T05:01:45;2.45;;;1.10;;
71973;SDS011;59840;52.122;5.404;2023-02-28T05:04:13;2.53;;;1.10;;
71973;SDS011;59840;52.122;5.404;2023-02-28T05:06:40;1.77;;;1.17;;
71973;SDS011;59840;52.122;5.404;2023-02-28T05:09:06;1.77;;;0.90;;
71973;SDS011;59840;52.122;5.404;2023-02-28T05:11:33;2.40;;;1.08;;
71973;SDS011;59840;52.122;5.404;2023-02-28T05:14:05;1.60;;;1.10;;
71973;SDS011;59840;52.122;5.404;2023-02-28T05:16:35;2.40;;;0.90;;
71973;SDS011;59840;52.122;5.404;2023-02-28T05:19:02;1.57;;;0.97;;
71973;SDS011;59840;52.122;5.404;2023-02-28T05:21:31;1.63;;;0.90;;
71973;SDS011;59840;52.122;5.404;2023-02-28T05:24:00;1.73;;;1.00;;
71973;SDS011;59840;52.122;5.404;2023-02-28T05:26:28;3.60;;;1.27;;
71973;SDS011;59840;52.122;5.404;2023-02-28T05:28:56;2.03;;;0.93;;
71973;SDS011;59840;52.122;5.404;2023-02-28T05:31:22;1.97;;;1.27;;
71973;SDS011;59840;52.122;5.404;2023-02-28T05:33:49;3.80;;;1.25;;
71973;SDS011;59840;52.122;5.404;2023-02-28T05:36:16;2.28;;;1.20;;
71973;SDS011;59840;52.122;5.404;2023-02-28T05:38:45;2.42;;;1.05;;
71973;SDS011;59840;52.122;5.404;2023-02-28T05:41:12;1.35;;;0.85;;
71973;SDS011;59840;52.122;5.404;2023-02-28T05:43:39;5.13;;;1.10;;
71973;SDS011;59840;52.122;5.404;2023-02-28T05:46:06;2.90;;;1.05;;
71973;SDS011;59840;52.122;5.404;2023-02-28T05:48:35;1.60;;;1.10;;
71973;SDS011;59840;52.122;5.404;2023-02-28T05:51:03;2.67;;;0.77;;
71973;SDS011;59840;52.122;5.404;2023-02-28T05:53:31;2.63;;;1.00;;
71973;SDS011;59840;52.122;5.404;2023-02-28T05:55:58;1.23;;;0.77;;
71973;SDS011;59840;52.122;5.404;2023-02-28T05:58:25;4.70;;;1.20;;
71973;SDS011;59840;52.122;5.404;2023-02-28T06:00:55;7.07;;;1.15;;
71973;SDS011;59840;52.122;5.404;2023-02-28T06:03:22;3.40;;;1.20;;
71973;SDS011;59840;52.122;5.404;2023-02-28T06:05:48;2.70;;;1.23;;
71973;SDS011;59840;52.122;5.404;2023-02-28T06:08:15;3.40;;;1.13;;
71973;SDS011;59840;52.122;5.404;2023-02-28T06:10:41;2.17;;;1.20;;
71973;SDS011;59840;52.122;5.404;2023-02-28T06:13:08;1.10;;;0.80;;
71973;SDS011;59840;52.122;5.404;2023-02-28T06:15:34;3.13;;;1.10;;
71973;SDS011;59840;52.122;5.404;2023-02-28T06:18:01;1.88;;;1.00;;
71973;SDS011;59840;52.122;5.404;2023-02-28T06:20:28;2.00;;;0.93;;
71973;SDS011;59840;52.122;5.404;2023-02-28T06:22:56;3.00;;;1.02;;
71973;SDS011;59840;52.122;5.404;2023-02-28T06:25:25;1.40;;;0.90;;
71973;SDS011;59840;52.122;5.404;2023-02-28T06:27:53;1.85;;;1.23;;
71973;SDS011;59840;52.122;5.404;2023-02-28T06:30:20;1.83;;;1.10;;
71973;SDS011;59840;52.122;5.404;2023-02-28T06:32:53;2.97;;;1.07;;
71973;SDS011;59840;52.122;5.404;2023-02-28T06:35:20;1.77;;;0.98;;
71973;SDS011;59840;52.122;5.404;2023-02-28T06:37:48;2.25;;;1.02;;
71973;SDS011;59840;52.122;5.404;2023-02-28T06:40:14;1.33;;;1.00;;
71973;SDS011;59840;52.122;5.404;2023-02-28T06:42:41;1.98;;;1.17;;
71973;SDS011;59840;52.122;5.404;2023-02-28T06:45:08;1.70;;;1.10;;
71973;SDS011;59840;52.122;5.404;2023-02-28T06:47:37;3.33;;;1.23;;
71973;SDS011;59840;52.122;5.404;2023-02-28T06:50:05;1.92;;;1.25;;
71973;SDS011;59840;52.122;5.404;2023-02-28T06:52:32;1.73;;;0.82;;
71973;SDS011;59840;52.122;5.404;2023-02-28T06:55:03;3.10;;;1.35;;
71973;SDS011;59840;52.122;5.404;2023-02-28T06:57:31;2.13;;;1.37;;
71973;SDS011;59840;52.122;5.404;2023-02-28T06:59:59;2.30;;;1.65;;
71973;SDS011;59840;52.122;5.404;2023-02-28T07:02:27;2.35;;;1.38;;
71973;SDS011;59840;52.122;5.404;2023-02-28T07:04:54;2.25;;;1.35;;
71973;SDS011;59840;52.122;5.404;2023-02-28T07:07:21;3.85;;;1.67;;
71973;SDS011;59840;52.122;5.404;2023-02-28T07:09:48;3.57;;;1.50;;
71973;SDS011;59840;52.122;5.404;2023-02-28T07:12:14;2.08;;;1.50;;
71973;SDS011;59840;52.122;5.404;2023-02-28T07:14:41;2.33;;;1.42;;
71973;SDS011;59840;52.122;5.404;2023-02-28T07:17:08;3.63;;;1.80;;
71973;SDS011;59840;52.122;5.404;2023-02-28T07:19:38;2.10;;;1.35;;
71973;SDS011;59840;52.122;5.404;2023-02-28T07:22:05;2.50;;;1.80;;
71973;SDS011;59840;52.122;5.404;2023-02-28T07:24:32;3.00;;;1.60;;
71973;SDS011;59840;52.122;5.404;2023-02-28T07:26:58;2.08;;;1.58;;
71973;SDS011;59840;52.122;5.404;2023-02-28T07:29:25;2.40;;;1.75;;
71973;SDS011;59840;52.122;5.404;2023-02-28T07:31:52;2.80;;;1.52;;
71973;SDS011;59840;52.122;5.404;2023-02-28T07:34:19;3.57;;;1.67;;
71973;SDS011;59840;52.122;5.404;2023-02-28T07:36:47;3.10;;;1.67;;
71973;SDS011;59840;52.122;5.404;2023-02-28T07:39:13;5.63;;;2.00;;
71973;SDS011;59840;52.122;5.404;2023-02-28T07:41:40;4.32;;;1.65;;
71973;SDS011;59840;52.122;5.404;2023-02-28T07:44:10;2.28;;;1.70;;
71973;SDS011;59840;52.122;5.404;2023-02-28T07:46:37;6.10;;;1.87;;
71973;SDS011;59840;52.122;5.404;2023-02-28T07:49:04;3.15;;;2.08;;
71973;SDS011;59840;52.122;5.404;2023-02-28T07:51:31;4.95;;;1.77;;
71973;SDS011;59840;52.122;5.404;2023-02-28T07:53:58;3.13;;;1.65;;
71973;SDS011;59840;52.122;5.404;2023-02-28T07:56:24;3.55;;;1.83;;
71973;SDS011;59840;52.122;5.404;2023-02-28T07:58:51;2.10;;;1.50;;
71973;SDS011;59840;52.122;5.404;2023-02-28T08:01:18;4.78;;;1.55;;
71973;SDS011;59840;52.122;5.404;2023-02-28T08:03:45;2.47;;;1.55;;
71973;SDS011;59840;52.122;5.404;2023-02-28T08:06:16;1.80;;;1.10;;
71973;SDS011;59840;52.122;5.404;2023-02-28T08:08:46;2.75;;;1.38;;
71973;SDS011;59840;52.122;5.404;2023-02-28T08:11:13;4.27;;;1.37;;
71973;SDS011;59840;52.122;5.404;2023-02-28T08:13:40;1.85;;;1.30;;
71973;SDS011;59840;52.122;5.404;2023-02-28T08:16:08;2.65;;;1.35;;
71973;SDS011;59840;52.122;5.404;2023-02-28T08:18:35;3.15;;;1.65;;
71973;SDS011;59840;52.122;5.404;2023-02-28T08:21:06;2.20;;;1.50;;
71973;SDS011;59840;52.122;5.404;2023-02-28T08:23:33;2.63;;;1.57;;
71973;SDS011;59840;52.122;5.404;2023-02-28T08:26:01;2.85;;;1.70;;
71973;SDS011;59840;52.122;5.404;2023-02-28T08:28:28;2.97;;;1.73;;
71973;SDS011;59840;52.122;5.404;2023-02-28T08:30:55;2.72;;;1.65;;
71973;SDS011;59840;52.122;5.404;2023-02-28T08:33:22;2.60;;;1.67;;
71973;SDS011;59840;52.122;5.404;2023-02-28T08:35:52;4.33;;;1.43;;
71973;SDS011;59840;52.122;5.404;2023-02-28T08:38:20;3.00;;;1.58;;
71973;SDS011;59840;52.122;5.404;2023-02-28T08:40:46;3.60;;;1.50;;
71973;SDS011;59840;52.122;5.404;2023-02-28T08:43:13;2.22;;;1.63;;
71973;SDS011;59840;52.122;5.404;2023-02-28T08:45:40;2.10;;;1.50;;
71973;SDS011;59840;52.122;5.404;2023-02-28T08:48:06;2.30;;;1.60;;
71973;SDS011;59840;52.122;5.404;2023-02-28T08:50:33;2.00;;;1.45;;
71973;SDS011;59840;52.122;5.404;2023-02-28T08:53:00;2.00;;;1.60;;
71973;SDS011;59840;52.122;5.404;2023-02-28T08:55:26;4.82;;;1.52;;
71973;SDS011;59840;52.122;5.404;2023-02-28T08:57:53;3.20;;;1.63;;
71973;SDS011;59840;52.122;5.404;2023-02-28T09:00:21;2.10;;;1.20;;
71973;SDS011;59840;52.122;5.404;2023-02-28T09:02:48;4.43;;;1.48;;
71973;SDS011;59840;52.122;5.404;2023-02-28T09:05:14;2.13;;;1.00;;
71973;SDS011;59840;52.122;5.404;2023-02-28T09:07:41;2.80;;;1.30;;
71973;SDS011;59840;52.122;5.404;2023-02-28T09:10:08;1.83;;;1.10;;
71973;SDS011;59840;52.122;5.404;2023-02-28T09:12:35;3.30;;;1.10;;
71973;SDS011;59840;52.122;5.404;2023-02-28T09:15:02;1.58;;;1.10;;
71973;SDS011;59840;52.122;5.404;2023-02-28T09:17:29;1.30;;;1.10;;
71973;SDS011;59840;52.122;5.404;2023-02-28T09:19:56;1.20;;;0.82;;
71973;SDS011;59840;52.122;5.404;2023-02-28T09:22:24;1.27;;;0.80;;
71973;SDS011;59840;52.122;5.404;2023-02-28T09:24:51;1.20;;;0.67;;
71973;SDS011;59840;52.122;5.404;2023-02-28T09:27:18;2.85;;;1.38;;
71973;SDS011;59840;52.122;5.404;2023-02-28T09:29:44;0.95;;;0.65;;
71973;SDS011;59840;52.122;5.404;2023-02-28T09:32:11;1.33;;;0.60;;
71973;SDS011;59840;52.122;5.404;2023-02-28T09:34:38;2.65;;;0.80;;
71973;SDS011;59840;52.122;5.404;2023-02-28T09:37:04;1.40;;;0.70;;
71973;SDS011;59840;52.122;5.404;2023-02-28T09:39:31;1.55;;;0.63;;
71973;SDS011;59840;52.122;5.404;2023-02-28T09:41:58;0.93;;;0.47;;
71973;SDS011;59840;52.122;5.404;2023-02-28T09:44:38;1.02;;;0.50;;
71973;SDS011;59840;52.122;5.404;2023-02-28T09:47:12;0.60;;;0.30;;
71973;SDS011;59840;52.122;5.404;2023-02-28T09:49:45;0.90;;;0.50;;
71973;SDS011;59840;52.122;5.404;2023-02-28T09:52:15;0.55;;;0.30;;
71973;SDS011;59840;52.122;5.404;2023-02-28T09:54:45;1.00;;;0.45;;
71973;SDS011;59840;52.122;5.404;2023-02-28T10:00:05;3.72;;;0.57;;
71973;SDS011;59840;52.122;5.404;2023-02-28T10:05:27;2.00;;;0.50;;
71973;SDS011;59840;52.122;5.404;2023-02-28T10:08:33;0.93;;;0.50;;
71973;SDS011;59840;52.122;5.404;2023-02-28T10:10:56;1.00;;;0.47;;
71973;SDS011;59840;52.122;5.404;2023-02-28T10:13:46;0.85;;;0.70;;
71973;SDS011;59840;52.122;5.404;2023-02-28T10:16:35;1.97;;;0.60;;
71973;SDS011;59840;52.122;5.404;2023-02-28T10:22:08;0.65;;;0.45;;
71973;SDS011;59840;52.122;5.404;2023-02-28T10:24:41;0.75;;;0.50;;
71973;SDS011;59840;52.122;5.404;2023-02-28T10:27:32;0.77;;;0.50;;
71973;SDS011;59840;52.122;5.404;2023-02-28T10:29:59;0.90;;;0.70;;
71973;SDS011;59840;52.122;5.404;2023-02-28T10:32:28;2.97;;;0.50;;
71973;SDS011;59840;52.122;5.404;2023-02-28T10:35:22;0.93;;;0.40;;
71973;SDS011;59840;52.122;5.404;2023-02-28T10:37:49;1.40;;;0.50;;
71973;SDS011;59840;52.122;5.404;2023-02-28T10:43:04;1.20;;;0.50;;
71973;SDS011;59840;52.122;5.404;2023-02-28T10:45:33;2.08;;;0.47;;
71973;SDS011;59840;52.122;5.404;2023-02-28T10:50:55;0.90;;;0.50;;
71973;SDS011;59840;52.122;5.404;2023-02-28T11:01:17;0.65;;;0.35;;
71973;SDS011;59840;52.122;5.404;2023-02-28T11:03:46;2.20;;;0.50;;
71973;SDS011;59840;52.122;5.404;2023-02-28T11:06:21;2.10;;;0.40;;
71973;SDS011;59840;52.122;5.404;2023-02-28T11:08:52;0.80;;;0.40;;
71973;SDS011;59840;52.122;5.404;2023-02-28T11:11:21;0.95;;;0.52;;
71973;SDS011;59840;52.122;5.404;2023-02-28T11:13:54;2.10;;;0.70;;
71973;SDS011;59840;52.122;5.404;2023-02-28T11:16:31;0.63;;;0.45;;
71973;SDS011;59840;52.122;5.404;2023-02-28T11:19:04;1.33;;;0.50;;
71973;SDS011;59840;52.122;5.404;2023-02-28T11:21:45;1.80;;;0.57;;
71973;SDS011;59840;52.122;5.404;2023-02-28T11:24:23;1.20;;;0.43;;
71973;SDS011;59840;52.122;5.404;2023-02-28T11:26:51;1.20;;;0.50;;
71973;SDS011;59840;52.122;5.404;2023-02-28T11:29:19;0.77;;;0.40;;
71973;SDS011;59840;52.122;5.404;2023-02-28T11:32:32;1.38;;;0.63;;
71973;SDS011;59840;52.122;5.404;2023-02-28T11:34:42;0.50;;;0.30;;
71973;SDS011;59840;52.122;5.404;2023-02-28T11:37:16;1.33;;;0.50;;
71973;SDS011;59840;52.122;5.404;2023-02-28T11:39:45;0.50;;;0.32;;
71973;SDS011;59840;52.122;5.404;2023-02-28T11:53:23;0.70;;;0.38;;
71973;SDS011;59840;52.122;5.404;2023-02-28T11:56:00;0.60;;;0.30;;
71973;SDS011;59840;52.122;5.404;2023-02-28T12:03:58;1.10;;;0.40;;
71973;SDS011;59840;52.122;5.404;2023-02-28T12:06:45;0.60;;;0.30;;
71973;SDS011;59840;52.122;5.404;2023-02-28T12:11:56;1.08;;;0.40;;
71973;SDS011;59840;52.122;5.404;2023-02-28T12:17:13;1.65;;;0.68;;
71973;SDS011;59840;52.122;5.404;2023-02-28T12:25:38;0.90;;;0.40;;
71973;SDS011;59840;52.122;5.404;2023-02-28T12:28:28;1.00;;;0.47;;
71973;SDS011;59840;52.122;5.404;2023-02-28T12:31:36;0.95;;;0.47;;
71973;SDS011;59840;52.122;5.404;2023-02-28T12:34:03;0.70;;;0.35;;
71973;SDS011;59840;52.122;5.404;2023-02-28T12:36:35;1.02;;;0.50;;
71973;SDS011;59840;52.122;5.404;2023-02-28T12:39:13;1.15;;;0.60;;
71973;SDS011;59840;52.122;5.404;2023-02-28T12:41:54;1.00;;;0.60;;
71973;SDS011;59840;52.122;5.404;2023-02-28T12:44:30;1.38;;;0.50;;
71973;SDS011;59840;52.122;5.404;2023-02-28T12:47:00;1.10;;;0.60;;
71973;SDS011;59840;52.122;5.404;2023-02-28T12:49:33;1.38;;;0.57;;
71973;SDS011;59840;52.122;5.404;2023-02-28T12:52:04;0.88;;;0.40;;
71973;SDS011;59840;52.122;5.404;2023-02-28T12:54:40;0.90;;;0.50;;
71973;SDS011;59840;52.122;5.404;2023-02-28T12:57:21;1.85;;;0.43;;
71973;SDS011;59840;52.122;5.404;2023-02-28T12:59:59;1.08;;;0.73;;
71973;SDS011;59840;52.122;5.404;2023-02-28T13:05:32;1.73;;;0.60;;
71973;SDS011;59840;52.122;5.404;2023-02-28T13:10:54;1.27;;;0.40;;
71973;SDS011;59840;52.122;5.404;2023-02-28T13:13:24;1.83;;;0.70;;
71973;SDS011;59840;52.122;5.404;2023-02-28T13:16:03;1.77;;;0.50;;
71973;SDS011;59840;52.122;5.404;2023-02-28T13:21:07;1.20;;;0.50;;
71973;SDS011;59840;52.122;5.404;2023-02-28T13:26:13;1.50;;;0.57;;
71973;SDS011;59840;52.122;5.404;2023-02-28T13:31:19;1.42;;;0.73;;
71973;SDS011;59840;52.122;5.404;2023-02-28T13:38:52;1.60;;;0.65;;
71973;SDS011;59840;52.122;5.404;2023-02-28T13:41:40;1.52;;;0.70;;
71973;SDS011;59840;52.122;5.404;2023-02-28T13:44:08;1.35;;;0.75;;
71973;SDS011;59840;52.122;5.404;2023-02-28T13:49:20;1.50;;;0.70;;
71973;SDS011;59840;52.122;5.404;2023-02-28T14:05:35;1.10;;;0.70;;
71973;SDS011;59840;52.122;5.404;2023-02-28T14:08:14;1.80;;;0.80;;
71973;SDS011;59840;52.122;5.404;2023-02-28T14:10:45;0.70;;;0.55;;
71973;SDS011;59840;52.122;5.404;2023-02-28T14:13:36;1.47;;;0.80;;
71973;SDS011;59840;52.122;5.404;2023-02-28T14:16:13;1.30;;;1.02;;
71973;SDS011;59840;52.122;5.404;2023-02-28T14:18:51;2.17;;;0.95;;
71973;SDS011;59840;52.122;5.404;2023-02-28T14:26:58;1.13;;;0.70;;
71973;SDS011;59840;52.122;5.404;2023-02-28T14:37:42;1.10;;;0.73;;
71973;SDS011;59840;52.122;5.404;2023-02-28T14:40:17;2.00;;;0.87;;
71973;SDS011;59840;52.122;5.404;2023-02-28T14:42:55;1.65;;;0.80;;
71973;SDS011;59840;52.122;5.404;2023-02-28T14:45:23;0.88;;;0.70;;
71973;SDS011;59840;52.122;5.404;2023-02-28T14:47:56;3.50;;;0.90;;
71973;SDS011;59840;52.122;5.404;2023-02-28T14:50:31;1.33;;;0.60;;
71973;SDS011;59840;52.122;5.404;2023-02-28T14:53:01;1.40;;;0.80;;
71973;SDS011;59840;52.122;5.404;2023-02-28T14:55:30;0.88;;;0.40;;
71973;SDS011;59840;52.122;5.404;2023-02-28T14:58:00;1.98;;;0.80;;
71973;SDS011;59840;52.122;5.404;2023-02-28T15:00:31;1.08;;;0.60;;
71973;SDS011;59840;52.122;5.404;2023-02-28T15:03:23;1.30;;;0.63;;
71973;SDS011;59840;52.122;5.404;2023-02-28T15:06:01;1.17;;;0.80;;
71973;SDS011;59840;52.122;5.404;2023-02-28T15:08:33;1.05;;;0.57;;
71973;SDS011;59840;52.122;5.404;2023-02-28T15:11:04;1.17;;;0.57;;
71973;SDS011;59840;52.122;5.404;2023-02-28T15:16:10;2.45;;;0.77;;
71973;SDS011;59840;52.122;5.404;2023-02-28T15:21:17;1.23;;;0.70;;
71973;SDS011;59840;52.122;5.404;2023-02-28T15:23:48;1.35;;;0.73;;
71973;SDS011;59840;52.122;5.404;2023-02-28T15:26:19;1.50;;;0.63;;
71973;SDS011;59840;52.122;5.404;2023-02-28T15:28:50;0.75;;;0.60;;
71973;SDS011;59840;52.122;5.404;2023-02-28T15:31:40;1.53;;;0.57;;
71973;SDS011;59840;52.122;5.404;2023-02-28T15:34:39;0.77;;;0.60;;
71973;SDS011;59840;52.122;5.404;2023-02-28T15:40:07;1.08;;;0.50;;
71973;SDS011;59840;52.122;5.404;2023-02-28T15:42:39;0.98;;;0.57;;
71973;SDS011;59840;52.122;5.404;2023-02-28T15:45:05;1.17;;;0.40;;
71973;SDS011;59840;52.122;5.404;2023-02-28T15:47:52;0.95;;;0.40;;
71973;SDS011;59840;52.122;5.404;2023-02-28T15:50:21;1.52;;;0.82;;
71973;SDS011;59840;52.122;5.404;2023-02-28T15:52:47;1.95;;;0.60;;
71973;SDS011;59840;52.122;5.404;2023-02-28T15:55:18;1.48;;;0.80;;
71973;SDS011;59840;52.122;5.404;2023-02-28T15:57:50;1.43;;;0.70;;
71973;SDS011;59840;52.122;5.404;2023-02-28T16:00:20;1.05;;;0.70;;
71973;SDS011;59840;52.122;5.404;2023-02-28T16:02:49;2.65;;;0.50;;
71973;SDS011;59840;52.122;5.404;2023-02-28T16:05:30;0.85;;;0.50;;
71973;SDS011;59840;52.122;5.404;2023-02-28T16:07:59;1.00;;;0.45;;
71973;SDS011;59840;52.122;5.404;2023-02-28T16:10:46;1.53;;;0.50;;
71973;SDS011;59840;52.122;5.404;2023-02-28T16:13:13;1.50;;;0.52;;
71973;SDS011;59840;52.122;5.404;2023-02-28T16:15:42;1.00;;;0.45;;
71973;SDS011;59840;52.122;5.404;2023-02-28T16:18:11;2.03;;;0.60;;
71973;SDS011;59840;52.122;5.404;2023-02-28T16:20:38;0.90;;;0.50;;
71973;SDS011;59840;52.122;5.404;2023-02-28T16:23:05;1.00;;;0.50;;
71973;SDS011;59840;52.122;5.404;2023-02-28T16:25:36;2.00;;;0.70;;
71973;SDS011;59840;52.122;5.404;2023-02-28T16:28:11;3.42;;;0.50;;
71973;SDS011;59840;52.122;5.404;2023-02-28T16:30:44;1.83;;;0.77;;
71973;SDS011;59840;52.122;5.404;2023-02-28T16:33:10;0.80;;;0.50;;
71973;SDS011;59840;52.122;5.404;2023-02-28T16:35:37;1.20;;;0.60;;
71973;SDS011;59840;52.122;5.404;2023-02-28T16:38:03;0.70;;;0.63;;
71973;SDS011;59840;52.122;5.404;2023-02-28T16:40:33;1.00;;;0.57;;
71973;SDS011;59840;52.122;5.404;2023-02-28T16:43:01;1.63;;;0.73;;
71973;SDS011;59840;52.122;5.404;2023-02-28T16:45:33;5.90;;;0.90;;
71973;SDS011;59840;52.122;5.404;2023-02-28T16:47:59;1.90;;;0.60;;
71973;SDS011;59840;52.122;5.404;2023-02-28T16:50:27;1.55;;;0.63;;
71973;SDS011;59840;52.122;5.404;2023-02-28T16:52:55;1.67;;;1.17;;
71973;SDS011;59840;52.122;5.404;2023-02-28T16:55:22;2.25;;;1.10;;
71973;SDS011;59840;52.122;5.404;2023-02-28T16:57:54;4.90;;;1.08;;
71973;SDS011;59840;52.122;5.404;2023-02-28T17:00:22;1.67;;;0.90;;
71973;SDS011;59840;52.122;5.404;2023-02-28T17:02:50;1.30;;;0.80;;
71973;SDS011;59840;52.122;5.404;2023-02-28T17:05:17;1.52;;;0.70;;
71973;SDS011;59840;52.122;5.404;2023-02-28T17:07:45;1.20;;;0.70;;
71973;SDS011;59840;52.122;5.404;2023-02-28T17:10:13;1.38;;;0.70;;
71973;SDS011;59840;52.122;5.404;2023-02-28T17:12:40;2.67;;;1.30;;
71973;SDS011;59840;52.122;5.404;2023-02-28T17:15:08;1.92;;;0.95;;
71973;SDS011;59840;52.122;5.404;2023-02-28T17:17:36;2.15;;;0.80;;
71973;SDS011;59840;52.122;5.404;2023-02-28T17:20:03;1.50;;;1.00;;